• Join FlightAware (Why Join?)
  • Login
  • US Flag 
04:37PM EDT


 

Airport Tracker/Info


-or-


 

Live Flight TrackerFlight Track Log ✈ N595WP ✈ 29-Apr-2012 ✈ KBTR - KBTR

Flight Track Log - Related Links

Times and Time Zones

All times are in EDT time to prevent confusion due to time zone crossing. See the N595WP flight status page for this flight to view local times or setup timezone preferences in your user account.

Time Position Orientation Groundspeed Altitude Reporting Facility
EDT Latitude Longitude Course Direction KTS MPH feet Rate Location/Type
02:39PM 30.5947 -91.1616 North  Level FlightAware Approximate
02:40PM 30.6468 -91.1667 North  Level FlightAware Approximate
02:41PM 30.6985 -91.1746 12° North  Level FlightAware Approximate
02:42PM 30.7502 -91.1845 27° Northeast  Level FlightAware Approximate
02:46PM 30.8150 -91.1461 354° North 163 188 4,900  Level Houston Center
02:47PM 30.8525 -91.1508 350° North 157 181 5,300 420 Climbing Houston Center
02:48PM 30.9006 -91.1603 347° North 162 186 5,800 480 Climbing Houston Center
02:49PM 30.9425 -91.1719 352° North 162 186 6,300 420 Climbing Houston Center
02:50PM 30.9861 -91.1792 355° North 167 192 6,700 480 Climbing Houston Center
02:51PM 31.0281 -91.1836 350° North 161 185 7,300 480 Climbing Houston Center
02:52PM 31.0739 -91.1933 350° North 161 185 7,700 420 Climbing Houston Center
02:53PM 31.1178 -91.2028 352° North 161 185 8,200 480 Climbing Houston Center
02:54PM 31.1617 -91.2097 349° North 161 185 8,700 420 Climbing Houston Center
02:55PM 31.2056 -91.2194 345° North 161 185 9,100 360 Climbing Houston Center
02:56PM 31.2514 -91.2336 351° North 156 180 9,500 360 Climbing Houston Center
02:57PM 31.2889 -91.2408 350° North 156 180 9,900 240 Climbing Houston Center
02:58PM 31.3369 -91.2503 326° Northwest 163 188 10,000 -60 Climbing Houston Center
02:59PM 31.3706 -91.2769 219° Southwest 157 181 9,800 -360 Descending Houston Center
03:00PM 31.3372 -91.3086 190° South 103 119 9,300 -480 Descending Houston Center
03:01PM 31.2892 -91.3186 178° South 120 138 8,900 -600 Descending Houston Center
03:02PM 31.2392 -91.3164 171° South 151 174 8,200 -720 Descending Houston Center
03:03PM 31.1869 -91.3067 173° South 170 196 7,500 -660 Descending Houston Center
03:04PM 31.1411 -91.2997 175° South 180 207 6,900 -600 Descending Houston Center
03:05PM 31.0908 -91.2950 170° South 180 207 6,400 -600 Descending Houston Center
03:06PM 31.0450 -91.2856 173° South 180 207 5,700 -600 Descending Houston Center
03:07PM 30.9928 -91.2783 172° South 180 207 5,200 2,100 Descending Houston Center
03:08PM 30.9489 -91.2714 173° South 180 207 10,000 -600 Climbing Houston Center
03:09PM 30.8967 -91.2642 175° South 180 207 4,100  Descending Houston Center
03:10PM 30.8508 -91.2594 173° South 180 207 10,000 2,940 Climbing Houston Center
03:11PM 30.8028 -91.2525 180° South 180 207 10,000  Level Houston Center
03:12PM 30.7944 -91.2525 360° North 180 207 10,000  Level Houston Center
03:13PM 30.7944 -91.2525 360° North 180 207 10,000  Level Houston Center
03:14PM 30.7944 -91.2525 360° North 180 207 10,000  Level Houston Center